createdAt,value
2023-04-21T00:00:47.775Z,6.15
2023-04-21T00:03:15.643Z,6.21
2023-04-21T00:05:44.981Z,6.23
2023-04-21T00:08:12.623Z,6.28
2023-04-21T00:10:40.438Z,6.35
2023-04-21T00:13:08.278Z,6.38
2023-04-21T00:15:36.262Z,6.44
2023-04-21T00:18:04.766Z,6.45
2023-04-21T00:20:32.938Z,6.37
2023-04-21T00:23:03.630Z,6.29
2023-04-21T00:25:34.313Z,6.22
2023-04-21T00:28:03.958Z,6.11
2023-04-21T00:30:31.575Z,6.06
2023-04-21T00:32:59.301Z,6.08
2023-04-21T00:35:27.204Z,6.11
2023-04-21T00:37:54.819Z,6.15
2023-04-21T00:40:24.287Z,6.23
2023-04-21T00:42:52.091Z,6.30
2023-04-21T00:45:22.118Z,6.35
2023-04-21T00:47:50.015Z,6.36
2023-04-21T00:50:17.854Z,6.34
2023-04-21T00:52:47.070Z,6.30
2023-04-21T00:55:15.565Z,6.28
2023-04-21T00:57:45.241Z,6.28
2023-04-21T01:00:14.883Z,6.28
2023-04-21T01:02:43.037Z,6.28
2023-04-21T01:05:12.198Z,6.28
2023-04-21T01:07:40.676Z,6.27
2023-04-21T01:10:10.073Z,6.25
2023-04-21T01:12:45.557Z,6.26
2023-04-21T01:15:14.216Z,6.27
2023-04-21T01:17:42.270Z,6.25
2023-04-21T01:20:13.462Z,6.23
2023-04-21T01:22:44.739Z,6.19
2023-04-21T01:25:12.446Z,6.21
2023-04-21T01:27:40.347Z,6.19
2023-04-21T01:30:09.990Z,6.22
2023-04-21T01:32:37.960Z,6.27
2023-04-21T01:35:06.669Z,6.35
2023-04-21T01:37:35.262Z,6.42
2023-04-21T01:40:07.004Z,6.43
2023-04-21T01:42:36.105Z,6.42
2023-04-21T01:45:03.956Z,6.45
2023-04-21T01:47:31.629Z,6.47
2023-04-21T01:49:59.465Z,6.44
2023-04-21T01:52:27.235Z,6.43
2023-04-21T01:54:55.692Z,6.43
2023-04-21T01:57:25.012Z,6.39
2023-04-21T01:59:52.746Z,6.36
2023-04-21T02:02:20.389Z,6.34
2023-04-21T02:04:48.128Z,6.33
2023-04-21T02:07:15.813Z,6.33
2023-04-21T02:09:43.731Z,6.38
2023-04-21T02:12:12.380Z,6.43
2023-04-21T02:14:41.631Z,6.44
2023-04-21T02:17:12.637Z,6.49
2023-04-21T02:19:40.922Z,6.57
2023-04-21T02:22:10.638Z,6.64
2023-04-21T02:24:38.210Z,6.68
2023-04-21T02:27:06.594Z,6.75
2023-04-21T02:29:34.493Z,6.76
2023-04-21T02:32:14.292Z,6.75
2023-04-21T02:34:49.664Z,6.77
2023-04-21T02:37:17.292Z,6.82
2023-04-21T02:39:44.878Z,6.84
2023-04-21T02:42:12.470Z,6.80
2023-04-21T02:44:40.019Z,6.75
2023-04-21T02:47:08.941Z,6.68
2023-04-21T02:49:40.791Z,6.63
2023-04-21T02:52:08.331Z,6.62
2023-04-21T02:54:35.956Z,6.66
2023-04-21T02:57:03.647Z,6.72
2023-04-21T02:59:31.191Z,6.75
2023-04-21T03:01:58.758Z,6.77
2023-04-21T03:04:27.892Z,6.72
2023-04-21T03:06:55.690Z,6.69
2023-04-21T03:09:23.274Z,6.67
2023-04-21T03:11:50.836Z,6.66
2023-04-21T03:14:18.613Z,6.62
2023-04-21T03:16:47.397Z,6.56
2023-04-21T03:19:15.000Z,6.53
2023-04-21T03:21:43.924Z,6.48
2023-04-21T03:24:12.052Z,6.47
2023-04-21T03:26:40.103Z,6.48
2023-04-21T03:29:07.713Z,6.48
2023-04-21T03:31:35.362Z,6.46
2023-04-21T03:34:02.980Z,6.47
2023-04-21T03:36:31.184Z,6.51
2023-04-21T03:39:20.588Z,6.56
2023-04-21T03:41:48.135Z,6.60
2023-04-21T03:44:15.801Z,6.60
2023-04-21T03:46:43.334Z,6.58
2023-04-21T03:49:10.941Z,6.51
2023-04-21T03:51:38.490Z,6.41
2023-04-21T03:54:08.442Z,6.31
2023-04-21T03:56:36.136Z,6.25
2023-04-21T03:59:03.742Z,6.24
2023-04-21T04:01:31.483Z,6.19
2023-04-21T04:03:59.243Z,6.11
2023-04-21T04:06:28.426Z,6.02
2023-04-21T04:08:55.942Z,5.98
2023-04-21T04:11:24.961Z,5.96
2023-04-21T04:13:52.440Z,5.93
2023-04-21T04:16:20.060Z,5.92
2023-04-21T04:18:47.642Z,5.95
2023-04-21T04:21:15.178Z,5.94
2023-04-21T04:23:42.732Z,5.90
2023-04-21T04:26:11.356Z,5.89
2023-04-21T04:28:40.313Z,5.89
2023-04-21T04:31:07.922Z,5.93
2023-04-21T04:33:35.491Z,5.95
2023-04-21T04:36:03.051Z,5.93
2023-04-21T04:38:30.597Z,5.90
2023-04-21T04:40:59.063Z,5.85
2023-04-21T04:43:26.652Z,5.82
2023-04-21T04:45:55.571Z,5.82
2023-04-21T04:48:24.371Z,5.80
2023-04-21T04:50:51.969Z,5.77
2023-04-21T04:53:19.561Z,5.72
2023-04-21T04:55:47.218Z,5.67
2023-04-21T04:58:14.853Z,5.66
2023-04-21T05:00:42.450Z,5.70
2023-04-21T05:03:11.527Z,5.74
2023-04-21T05:05:39.306Z,5.74
2023-04-21T05:08:07.138Z,5.72
2023-04-21T05:10:34.777Z,5.74
2023-04-21T05:13:02.480Z,5.75
2023-04-21T05:15:30.205Z,5.79
2023-04-21T05:17:57.818Z,5.89
2023-04-21T05:20:26.740Z,5.95
2023-04-21T05:22:54.227Z,6.02
2023-04-21T05:25:21.822Z,6.11
2023-04-21T05:27:49.902Z,6.22
2023-04-21T05:30:17.465Z,6.27
2023-04-21T05:32:45.183Z,6.33
2023-04-21T05:35:12.860Z,6.33
2023-04-21T05:37:42.011Z,6.35
2023-04-21T05:40:10.973Z,6.46
2023-04-21T05:42:38.741Z,6.53
2023-04-21T05:45:07.625Z,6.56
2023-04-21T05:47:35.475Z,6.60
2023-04-21T05:50:03.153Z,6.64
2023-04-21T05:52:35.352Z,6.68
2023-04-21T05:55:04.792Z,6.68
2023-04-21T05:57:32.603Z,6.70
2023-04-21T06:00:00.659Z,6.70
2023-04-21T06:02:28.432Z,6.77
2023-04-21T06:04:56.514Z,6.87
2023-04-21T06:07:24.496Z,6.94
2023-04-21T06:09:52.309Z,7.05
2023-04-21T06:12:21.436Z,7.15
2023-04-21T06:14:49.018Z,7.28
2023-04-21T06:17:18.622Z,7.42
2023-04-21T06:19:46.488Z,7.59
2023-04-21T06:22:14.353Z,7.76
2023-04-21T06:24:42.154Z,7.99
2023-04-21T06:27:12.830Z,8.16
2023-04-21T06:29:43.340Z,8.26
2023-04-21T06:32:11.671Z,8.38
2023-04-21T06:34:40.054Z,8.48
2023-04-21T06:37:07.948Z,8.56
2023-04-21T06:39:35.756Z,8.62
2023-04-21T06:42:03.370Z,8.69
2023-04-21T06:44:32.378Z,8.75
2023-04-21T06:47:01.756Z,8.82
2023-04-21T06:49:29.563Z,8.88
2023-04-21T06:51:57.082Z,8.91
2023-04-21T06:54:24.696Z,8.97
2023-04-21T06:56:52.483Z,9.04
2023-04-21T06:59:20.748Z,9.13
2023-04-21T07:01:52.413Z,9.23
2023-04-21T07:04:22.349Z,9.32
2023-04-21T07:06:50.424Z,9.44
2023-04-21T07:09:18.483Z,9.60
2023-04-21T07:11:46.586Z,9.70
2023-04-21T07:14:14.400Z,9.80
2023-04-21T07:16:42.263Z,9.92
2023-04-21T07:19:10.092Z,10.00
2023-04-21T07:21:39.251Z,10.10
2023-04-21T07:24:07.342Z,10.21
2023-04-21T07:26:35.240Z,10.28
2023-04-21T07:29:03.131Z,10.32
2023-04-21T07:31:30.783Z,10.37
2023-04-21T07:33:58.591Z,10.38
2023-04-21T07:36:30.562Z,10.42
2023-04-21T07:39:00.249Z,10.44
2023-04-21T07:41:29.410Z,10.40
2023-04-21T07:43:57.178Z,10.39
2023-04-21T07:46:30.223Z,10.38
2023-04-21T07:48:57.967Z,10.39
2023-04-21T07:51:25.894Z,10.44
2023-04-21T07:53:53.500Z,10.49
2023-04-21T07:56:23.049Z,10.55
2023-04-21T07:58:50.868Z,10.61
2023-04-21T08:01:18.590Z,10.69
2023-04-21T08:03:46.451Z,10.77
2023-04-21T08:06:14.435Z,10.88
2023-04-21T08:08:42.718Z,10.99
2023-04-21T08:11:11.047Z,11.06
2023-04-21T08:13:40.516Z,11.22
2023-04-21T08:16:08.786Z,11.41
2023-04-21T08:18:36.764Z,11.65
2023-04-21T08:21:04.875Z,11.94
2023-04-21T08:23:32.924Z,12.24
2023-04-21T08:26:00.844Z,12.57
2023-04-21T08:28:28.781Z,12.90
2023-04-21T08:30:58.012Z,13.12
2023-04-21T08:33:26.302Z,13.18
2023-04-21T08:36:05.461Z,13.26
2023-04-21T08:38:38.094Z,13.50
2023-04-21T08:41:06.429Z,13.77
2023-04-21T08:43:34.466Z,14.07
2023-04-21T08:46:07.455Z,14.27
2023-04-21T08:48:37.437Z,14.46
2023-04-21T08:51:08.813Z,14.58
2023-04-21T08:53:37.115Z,14.67
2023-04-21T08:58:36.949Z,14.93
2023-04-21T09:01:06.588Z,14.96
2023-04-21T09:03:34.925Z,14.98
2023-04-21T09:06:05.888Z,14.97
2023-04-21T09:08:35.003Z,14.81
2023-04-21T09:11:03.344Z,14.79
2023-04-21T09:13:33.082Z,14.87
2023-04-21T09:16:02.748Z,14.93
2023-04-21T09:18:36.010Z,14.92
2023-04-21T09:21:08.356Z,14.85
2023-04-21T09:23:47.715Z,14.79
2023-04-21T09:26:16.902Z,14.78
2023-04-21T09:28:45.549Z,14.80
2023-04-21T09:31:21.260Z,14.97
2023-04-21T09:36:26.355Z,15.47
2023-04-21T09:39:25.210Z,15.63
2023-04-21T09:41:46.808Z,15.89
2023-04-21T09:44:14.603Z,16.07
2023-04-21T09:46:44.774Z,16.28
2023-04-21T09:49:17.450Z,16.51
2023-04-21T09:52:10.287Z,16.75
2023-04-21T09:54:35.397Z,16.99
2023-04-21T09:57:05.311Z,16.97
2023-04-21T09:59:36.473Z,16.88
2023-04-21T10:02:10.811Z,16.80
2023-04-21T10:04:45.293Z,16.77
2023-04-21T10:07:13.644Z,16.80
2023-04-21T10:09:46.460Z,16.99
2023-04-21T10:12:15.644Z,17.12
2023-04-21T10:14:43.392Z,17.18
2023-04-21T10:17:12.362Z,17.25
2023-04-21T10:19:50.541Z,17.44
2023-04-21T10:22:29.664Z,17.66
2023-04-21T10:24:58.752Z,17.80
2023-04-21T10:27:33.939Z,17.77
2023-04-21T10:30:02.021Z,17.69
2023-04-21T10:32:41.360Z,17.56
2023-04-21T10:35:15.333Z,17.40
2023-04-21T10:37:44.184Z,17.35
2023-04-21T10:43:07.304Z,17.18
2023-04-21T10:45:35.076Z,17.09
2023-04-21T10:48:04.026Z,16.99
2023-04-21T10:50:33.372Z,16.88
2023-04-21T10:53:11.101Z,16.88
2023-04-21T10:55:42.527Z,16.87
2023-04-21T10:58:11.454Z,16.74
2023-04-21T11:00:40.844Z,16.79
2023-04-21T11:03:09.191Z,16.81
2023-04-21T11:05:46.252Z,16.93
2023-04-21T11:08:18.781Z,17.14
2023-04-21T11:10:51.979Z,17.37
2023-04-21T11:13:22.729Z,17.47
2023-04-21T11:16:05.943Z,17.64
2023-04-21T11:18:41.385Z,17.74
2023-04-21T11:21:13.404Z,17.82
2023-04-21T11:23:42.290Z,17.75
2023-04-21T11:26:09.923Z,17.64
2023-04-21T11:28:38.071Z,17.53
2023-04-21T11:31:06.077Z,17.45
2023-04-21T11:33:37.234Z,17.46
2023-04-21T11:36:05.988Z,17.43
2023-04-21T11:38:40.781Z,17.40
2023-04-21T11:41:09.609Z,17.37
2023-04-21T11:43:37.941Z,17.34
2023-04-21T11:46:17.822Z,17.41
2023-04-21T11:48:46.100Z,17.50
2023-04-21T11:51:20.730Z,17.61
2023-04-21T11:53:51.350Z,17.67
2023-04-21T11:56:21.792Z,17.75
2023-04-21T11:58:52.108Z,17.82
2023-04-21T12:01:20.822Z,17.80
2023-04-21T12:03:53.052Z,17.80
2023-04-21T12:06:24.413Z,17.92
2023-04-21T12:08:58.484Z,17.98
2023-04-21T12:11:26.162Z,17.97
2023-04-21T12:13:53.702Z,17.92
2023-04-21T12:16:21.278Z,17.86
2023-04-21T12:18:49.469Z,17.68
2023-04-21T12:21:17.408Z,17.59
2023-04-21T12:23:45.528Z,17.52
2023-04-21T12:26:14.419Z,17.42
2023-04-21T12:28:41.965Z,17.40
2023-04-21T12:31:09.520Z,17.37
2023-04-21T12:33:37.191Z,17.38
2023-04-21T12:36:05.231Z,17.37
2023-04-21T12:38:32.780Z,17.35
2023-04-21T12:41:00.375Z,17.29
2023-04-21T12:43:33.319Z,17.21
2023-04-21T12:46:01.841Z,17.14
2023-04-21T12:48:40.623Z,17.18
2023-04-21T12:51:20.248Z,17.23
2023-04-21T12:53:53.435Z,17.26
2023-04-21T12:56:22.311Z,17.29
2023-04-21T12:59:01.968Z,17.35
2023-04-21T13:01:33.714Z,17.33
2023-04-21T13:04:02.127Z,17.33
2023-04-21T13:06:31.006Z,17.33
2023-04-21T13:08:58.591Z,17.33
2023-04-21T13:11:26.305Z,17.35
2023-04-21T13:13:56.443Z,17.40
2023-04-21T13:16:25.138Z,17.46
2023-04-21T13:18:56.747Z,17.48
2023-04-21T13:21:30.084Z,17.50
2023-04-21T13:24:00.005Z,17.48
2023-04-21T13:26:30.660Z,17.44
2023-04-21T13:29:00.115Z,17.46
2023-04-21T13:31:28.135Z,17.49
2023-04-21T13:33:56.492Z,17.53
2023-04-21T13:36:24.605Z,17.57
2023-04-21T13:38:53.920Z,17.62
2023-04-21T13:41:21.652Z,17.60
2023-04-21T13:43:49.903Z,17.58
2023-04-21T13:46:21.110Z,17.55
2023-04-21T13:48:51.017Z,17.53
2023-04-21T13:51:19.884Z,17.54
2023-04-21T13:53:47.980Z,17.55
2023-04-21T13:56:15.750Z,17.53
2023-04-21T13:58:46.557Z,17.51
2023-04-21T14:01:14.900Z,17.49
2023-04-21T14:03:46.968Z,17.45
2023-04-21T14:06:14.870Z,17.46
2023-04-21T14:08:42.490Z,17.50
2023-04-21T14:11:10.080Z,17.50
2023-04-21T14:13:47.804Z,17.43
2023-04-21T14:16:19.842Z,17.40
2023-04-21T14:18:49.284Z,17.34
2023-04-21T14:21:19.935Z,17.32
2023-04-21T14:23:48.047Z,17.32
2023-04-21T14:26:16.580Z,17.34
2023-04-21T14:28:46.812Z,17.37
2023-04-21T14:31:22.404Z,17.37
2023-04-21T14:33:51.767Z,17.37
2023-04-21T14:36:19.379Z,17.35
2023-04-21T14:38:47.118Z,17.34
2023-04-21T14:41:14.711Z,17.35
2023-04-21T14:43:42.235Z,17.35
2023-04-21T14:46:09.922Z,17.34
2023-04-21T14:48:37.660Z,17.35
2023-04-21T14:51:09.303Z,17.37
2023-04-21T14:53:36.905Z,17.35
2023-04-21T14:56:04.735Z,17.32
2023-04-21T14:58:32.280Z,17.29
2023-04-21T15:00:59.979Z,17.25
2023-04-21T15:03:27.610Z,17.22
2023-04-21T15:05:55.391Z,17.19
2023-04-21T15:08:24.356Z,17.18
2023-04-21T15:10:52.115Z,17.18
2023-04-21T15:13:19.716Z,17.17
2023-04-21T15:15:47.222Z,17.15
2023-04-21T15:18:14.810Z,17.12
2023-04-21T15:20:45.829Z,17.11
2023-04-21T15:23:13.750Z,17.10
2023-04-21T15:25:42.965Z,17.09
2023-04-21T15:28:11.234Z,17.05
2023-04-21T15:30:39.508Z,17.04
2023-04-21T15:33:07.882Z,17.05
2023-04-21T15:35:36.538Z,17.05
2023-04-21T15:38:04.805Z,17.08
2023-04-21T15:40:33.116Z,17.08
2023-04-21T15:43:03.464Z,17.06
2023-04-21T15:45:31.282Z,17.03
2023-04-21T15:47:58.964Z,17.02
2023-04-21T15:50:26.741Z,17.00
2023-04-21T15:52:54.794Z,16.98
2023-04-21T15:55:23.040Z,16.97
2023-04-21T15:57:50.606Z,16.94
2023-04-21T16:00:20.021Z,16.91
2023-04-21T16:02:48.634Z,16.88
2023-04-21T16:05:17.104Z,16.88
2023-04-21T16:07:44.793Z,16.88
2023-04-21T16:10:12.892Z,16.85
2023-04-21T16:12:40.559Z,16.82
2023-04-21T16:17:45.320Z,16.79
2023-04-21T16:20:13.848Z,16.80
2023-04-21T16:22:41.565Z,16.83
2023-04-21T16:25:12.238Z,16.82
2023-04-21T16:27:39.989Z,16.81
2023-04-21T16:30:09.688Z,16.82
2023-04-21T16:32:37.539Z,16.84
2023-04-21T16:35:08.581Z,16.83
2023-04-21T16:37:38.089Z,16.84
2023-04-21T16:40:07.258Z,16.85
2023-04-21T16:42:35.224Z,16.85
2023-04-21T16:45:04.660Z,16.84
2023-04-21T16:47:33.874Z,16.80
2023-04-21T16:50:01.613Z,16.76
2023-04-21T16:52:30.609Z,16.72
2023-04-21T16:54:58.182Z,16.69
2023-04-21T16:57:25.885Z,16.68
2023-04-21T16:59:53.841Z,16.68
2023-04-21T17:02:21.598Z,16.68
2023-04-21T17:04:49.153Z,16.71
2023-04-21T17:07:16.873Z,16.72
2023-04-21T17:09:45.847Z,16.72
2023-04-21T17:12:13.339Z,16.71
2023-04-21T17:14:40.935Z,16.69
2023-04-21T17:17:08.612Z,16.67
2023-04-21T17:19:36.524Z,16.69
2023-04-21T17:22:04.116Z,16.66
2023-04-21T17:24:44.908Z,16.65
2023-04-21T17:27:20.836Z,16.61
2023-04-21T17:29:48.485Z,16.59
2023-04-21T17:32:16.187Z,16.55
2023-04-21T17:34:44.004Z,16.52
2023-04-21T17:37:11.730Z,16.48
2023-04-21T17:39:39.836Z,16.46
2023-04-21T17:42:07.686Z,16.42
2023-04-21T17:44:37.340Z,16.38
2023-04-21T17:47:08.343Z,16.33
2023-04-21T17:49:37.459Z,16.28
2023-04-21T17:52:06.967Z,16.23
2023-04-21T17:54:34.978Z,16.18
2023-04-21T17:57:03.789Z,16.13
2023-04-21T17:59:31.719Z,16.10
2023-04-21T18:02:00.964Z,16.08
2023-04-21T18:04:30.694Z,16.02
2023-04-21T18:06:58.952Z,15.99
2023-04-21T18:09:27.022Z,15.95
2023-04-21T18:11:54.966Z,15.89
2023-04-21T18:14:23.336Z,15.85
2023-04-21T18:16:50.937Z,15.80
2023-04-21T18:19:19.833Z,15.75
2023-04-21T18:21:47.529Z,15.72
2023-04-21T18:24:15.684Z,15.64
2023-04-21T18:26:43.865Z,15.58
2023-04-21T18:29:11.468Z,15.52
2023-04-21T18:31:39.380Z,15.46
2023-04-21T18:34:08.607Z,15.43
2023-04-21T18:36:38.607Z,15.41
2023-04-21T18:39:06.411Z,15.37
2023-04-21T18:41:33.995Z,15.34
2023-04-21T18:44:01.553Z,15.29
2023-04-21T18:46:29.189Z,15.21
2023-04-21T18:48:56.742Z,15.14
2023-04-21T18:51:24.943Z,15.09
2023-04-21T18:53:53.856Z,15.02
2023-04-21T18:56:21.372Z,14.99
2023-04-21T18:58:48.896Z,14.96
2023-04-21T19:01:16.566Z,14.94
2023-04-21T19:03:44.760Z,14.89
2023-04-21T19:06:12.567Z,14.84
2023-04-21T19:08:42.846Z,14.79
2023-04-21T19:11:14.668Z,14.74
2023-04-21T19:13:42.428Z,14.69
2023-04-21T19:16:11.726Z,14.62
2023-04-21T19:18:39.436Z,14.56
2023-04-21T19:21:07.157Z,14.48
2023-04-21T19:23:34.812Z,14.39
2023-04-21T19:26:05.018Z,14.29
2023-04-21T19:28:34.028Z,14.18
2023-04-21T19:31:01.583Z,14.13
2023-04-21T19:33:29.570Z,14.08
2023-04-21T19:35:58.271Z,14.00
2023-04-21T19:38:26.882Z,13.91
2023-04-21T19:40:54.918Z,13.81
2023-04-21T19:43:22.702Z,13.74
2023-04-21T19:45:51.960Z,13.68
2023-04-21T19:48:19.641Z,13.60
2023-04-21T19:50:47.334Z,13.54
2023-04-21T19:53:15.056Z,13.46
2023-04-21T19:55:42.775Z,13.40
2023-04-21T19:58:10.520Z,13.36
2023-04-21T20:00:38.506Z,13.33
2023-04-21T20:03:08.681Z,13.30
2023-04-21T20:05:36.424Z,13.25
2023-04-21T20:08:04.251Z,13.22
2023-04-21T20:10:31.832Z,13.16
2023-04-21T20:13:00.654Z,13.13
2023-04-21T20:15:28.682Z,13.08
2023-04-21T20:17:57.205Z,13.03
2023-04-21T20:20:26.557Z,12.99
2023-04-21T20:22:54.395Z,12.96
2023-04-21T20:25:22.164Z,12.93
2023-04-21T20:27:50.485Z,12.92
2023-04-21T20:30:19.094Z,12.89
2023-04-21T20:32:47.508Z,12.86
2023-04-21T20:35:16.955Z,12.86
2023-04-21T20:37:47.487Z,12.84
2023-04-21T20:40:16.039Z,12.82
2023-04-21T20:42:45.381Z,12.77
2023-04-21T20:45:13.468Z,12.75
2023-04-21T20:47:41.838Z,12.74
2023-04-21T20:50:10.873Z,12.75
2023-04-21T20:52:39.342Z,12.75
2023-04-21T20:55:09.397Z,12.72
2023-04-21T20:57:38.032Z,12.66
2023-04-21T21:00:07.170Z,12.63
2023-04-21T21:02:34.887Z,12.62
2023-04-21T21:05:02.570Z,12.63
2023-04-21T21:07:31.326Z,12.61
2023-04-21T21:09:58.935Z,12.57
2023-04-21T21:12:27.837Z,12.56
2023-04-21T21:14:55.517Z,12.55
2023-04-21T21:17:23.146Z,12.55
2023-04-21T21:19:50.809Z,12.55
2023-04-21T21:22:18.381Z,12.52
2023-04-21T21:24:46.602Z,12.49
2023-04-21T21:27:14.173Z,12.48
2023-04-21T21:29:43.255Z,12.48
2023-04-21T21:32:10.972Z,12.48
2023-04-21T21:34:38.559Z,12.49
2023-04-21T21:37:06.102Z,12.48
2023-04-21T21:39:33.670Z,12.49
2023-04-21T21:42:01.367Z,12.49
2023-04-21T21:44:28.944Z,12.49
2023-04-21T21:46:58.460Z,12.49
2023-04-21T21:49:26.140Z,12.50
2023-04-21T21:51:54.603Z,12.51
2023-04-21T21:54:22.229Z,12.55
2023-04-21T21:56:50.129Z,12.58
2023-04-21T21:59:17.739Z,12.55
2023-04-21T22:01:45.323Z,12.52
2023-04-21T22:04:14.365Z,12.46
2023-04-21T22:06:42.371Z,12.45
2023-04-21T22:09:09.973Z,12.48
2023-04-21T22:11:37.718Z,12.52
2023-04-21T22:14:18.506Z,12.52
2023-04-21T22:16:50.569Z,12.52
2023-04-21T22:19:19.744Z,12.51
2023-04-21T22:21:47.390Z,12.50
2023-04-21T22:24:15.355Z,12.52
2023-04-21T22:26:43.719Z,12.53
2023-04-21T22:29:11.410Z,12.52
2023-04-21T22:31:39.000Z,12.49
2023-04-21T22:34:06.563Z,12.46
2023-04-21T22:36:35.896Z,12.44
2023-04-21T22:39:04.274Z,12.43
2023-04-21T22:41:31.835Z,12.43
2023-04-21T22:43:59.668Z,12.48
2023-04-21T22:46:31.945Z,12.52
2023-04-21T22:48:59.885Z,12.52
2023-04-21T22:51:27.812Z,12.48
2023-04-21T22:53:56.764Z,12.44
2023-04-21T22:56:24.334Z,12.46
2023-04-21T22:58:52.091Z,12.49
2023-04-21T23:01:19.944Z,12.45
2023-04-21T23:03:47.579Z,12.36
2023-04-21T23:06:15.199Z,12.29
2023-04-21T23:08:42.707Z,12.24
2023-04-21T23:11:11.576Z,12.20
2023-04-21T23:13:39.812Z,12.15
2023-04-21T23:16:07.682Z,12.12
2023-04-21T23:18:35.850Z,12.09
2023-04-21T23:21:03.549Z,12.06
2023-04-21T23:23:31.281Z,12.10
2023-04-21T23:25:59.303Z,12.08
2023-04-21T23:28:28.209Z,12.05
2023-04-21T23:30:55.786Z,12.04
2023-04-21T23:33:23.558Z,11.99
2023-04-21T23:35:52.080Z,11.93
2023-04-21T23:38:19.588Z,11.89
2023-04-21T23:40:47.208Z,11.89
2023-04-21T23:43:14.822Z,11.90
2023-04-21T23:45:43.828Z,11.88
2023-04-21T23:48:11.733Z,11.84
2023-04-21T23:50:39.401Z,11.82
2023-04-21T23:53:07.064Z,11.76
2023-04-21T23:55:34.717Z,11.71
2023-04-21T23:58:02.247Z,11.66
